sensor_id;sensor_type;location;lat;lon;timestamp;temperature;humidity
5086;DHT22;4715;51.660;7.082;2024-01-15T00:02:18;1.30;99.90
5086;DHT22;4715;51.660;7.082;2024-01-15T00:04:40;1.30;99.90
5086;DHT22;4715;51.660;7.082;2024-01-15T00:07:06;1.30;99.90
5086;DHT22;4715;51.660;7.082;2024-01-15T00:09:28;1.40;99.90
5086;DHT22;4715;51.660;7.082;2024-01-15T00:11:53;1.40;99.90
5086;DHT22;4715;51.660;7.082;2024-01-15T00:14:15;1.40;99.90
5086;DHT22;4715;51.660;7.082;2024-01-15T00:16:40;1.40;99.90
5086;DHT22;4715;51.660;7.082;2024-01-15T00:19:02;1.40;99.90
5086;DHT22;4715;51.660;7.082;2024-01-15T00:21:24;1.40;99.90
5086;DHT22;4715;51.660;7.082;2024-01-15T00:23:47;1.50;99.90
5086;DHT22;4715;51.660;7.082;2024-01-15T00:26:09;1.50;99.90
5086;DHT22;4715;51.660;7.082;2024-01-15T00:28:30;1.50;99.90
5086;DHT22;4715;51.660;7.082;2024-01-15T00:30:52;1.50;99.90
5086;DHT22;4715;51.660;7.082;2024-01-15T00:33:14;1.50;99.90
5086;DHT22;4715;51.660;7.082;2024-01-15T00:35:37;1.50;99.90
5086;DHT22;4715;51.660;7.082;2024-01-15T00:37:59;1.50;99.90
5086;DHT22;4715;51.660;7.082;2024-01-15T00:40:23;1.50;99.90
5086;DHT22;4715;51.660;7.082;2024-01-15T00:42:46;1.50;99.90
5086;DHT22;4715;51.660;7.082;2024-01-15T00:45:09;1.60;99.90
5086;DHT22;4715;51.660;7.082;2024-01-15T00:47:31;1.60;99.90
5086;DHT22;4715;51.660;7.082;2024-01-15T00:49:54;1.60;99.90
5086;DHT22;4715;51.660;7.082;2024-01-15T00:52:16;1.60;99.90
5086;DHT22;4715;51.660;7.082;2024-01-15T00:54:38;1.60;99.90
5086;DHT22;4715;51.660;7.082;2024-01-15T00:57:03;1.60;99.90
5086;DHT22;4715;51.660;7.082;2024-01-15T00:59:28;1.60;99.90
5086;DHT22;4715;51.660;7.082;2024-01-15T01:01:50;1.60;99.90
5086;DHT22;4715;51.660;7.082;2024-01-15T01:04:16;1.60;99.90
5086;DHT22;4715;51.660;7.082;2024-01-15T01:06:38;1.60;99.90
5086;DHT22;4715;51.660;7.082;2024-01-15T01:09:00;1.60;99.90
5086;DHT22;4715;51.660;7.082;2024-01-15T01:11:22;1.60;99.90
5086;DHT22;4715;51.660;7.082;2024-01-15T01:13:48;1.60;99.90
5086;DHT22;4715;51.660;7.082;2024-01-15T01:16:10;1.60;99.90
5086;DHT22;4715;51.660;7.082;2024-01-15T01:18:32;1.50;99.90
5086;DHT22;4715;51.660;7.082;2024-01-15T01:20:55;1.50;99.90
5086;DHT22;4715;51.660;7.082;2024-01-15T01:23:16;1.60;99.90
5086;DHT22;4715;51.660;7.082;2024-01-15T01:25:39;1.60;99.90
5086;DHT22;4715;51.660;7.082;2024-01-15T01:28:00;1.60;99.90
5086;DHT22;4715;51.660;7.082;2024-01-15T01:30:24;1.50;99.90
5086;DHT22;4715;51.660;7.082;2024-01-15T01:32:46;1.50;99.90
5086;DHT22;4715;51.660;7.082;2024-01-15T01:35:08;1.50;99.90
5086;DHT22;4715;51.660;7.082;2024-01-15T01:37:30;1.50;99.90
5086;DHT22;4715;51.660;7.082;2024-01-15T01:39:52;1.50;99.90
5086;DHT22;4715;51.660;7.082;2024-01-15T01:42:15;1.50;99.90
5086;DHT22;4715;51.660;7.082;2024-01-15T01:44:37;1.50;99.90
5086;DHT22;4715;51.660;7.082;2024-01-15T01:47:01;1.50;99.90
5086;DHT22;4715;51.660;7.082;2024-01-15T01:49:23;1.50;99.90
5086;DHT22;4715;51.660;7.082;2024-01-15T01:51:46;1.50;99.90
5086;DHT22;4715;51.660;7.082;2024-01-15T01:54:09;1.40;99.90
5086;DHT22;4715;51.660;7.082;2024-01-15T01:56:33;1.40;99.90
5086;DHT22;4715;51.660;7.082;2024-01-15T01:58:58;1.50;99.90
5086;DHT22;4715;51.660;7.082;2024-01-15T02:01:20;1.50;99.90
5086;DHT22;4715;51.660;7.082;2024-01-15T02:03:48;1.50;99.90
5086;DHT22;4715;51.660;7.082;2024-01-15T02:06:12;1.50;99.90
5086;DHT22;4715;51.660;7.082;2024-01-15T02:08:37;1.50;99.90
5086;DHT22;4715;51.660;7.082;2024-01-15T02:11:02;1.50;99.90
5086;DHT22;4715;51.660;7.082;2024-01-15T02:13:26;1.50;99.90
5086;DHT22;4715;51.660;7.082;2024-01-15T02:15:49;1.50;99.90
5086;DHT22;4715;51.660;7.082;2024-01-15T02:18:13;1.40;99.90
5086;DHT22;4715;51.660;7.082;2024-01-15T02:20:37;1.50;99.90
5086;DHT22;4715;51.660;7.082;2024-01-15T02:23:14;1.40;99.90
5086;DHT22;4715;51.660;7.082;2024-01-15T02:25:38;1.50;99.90
5086;DHT22;4715;51.660;7.082;2024-01-15T02:28:01;1.40;99.90
5086;DHT22;4715;51.660;7.082;2024-01-15T02:30:24;1.50;99.90
5086;DHT22;4715;51.660;7.082;2024-01-15T02:32:47;1.50;99.90
5086;DHT22;4715;51.660;7.082;2024-01-15T02:35:10;1.50;99.90
5086;DHT22;4715;51.660;7.082;2024-01-15T02:37:31;1.50;99.90
5086;DHT22;4715;51.660;7.082;2024-01-15T02:39:55;1.50;99.90
5086;DHT22;4715;51.660;7.082;2024-01-15T02:42:17;1.50;99.90
5086;DHT22;4715;51.660;7.082;2024-01-15T02:44:39;1.50;99.90
5086;DHT22;4715;51.660;7.082;2024-01-15T02:47:03;1.40;99.90
5086;DHT22;4715;51.660;7.082;2024-01-15T02:49:28;1.50;99.90
5086;DHT22;4715;51.660;7.082;2024-01-15T02:51:50;1.50;99.90
5086;DHT22;4715;51.660;7.082;2024-01-15T02:54:13;1.50;99.90
5086;DHT22;4715;51.660;7.082;2024-01-15T02:56:37;1.40;99.90
5086;DHT22;4715;51.660;7.082;2024-01-15T02:58:59;1.40;99.90
5086;DHT22;4715;51.660;7.082;2024-01-15T03:01:22;1.40;99.90
5086;DHT22;4715;51.660;7.082;2024-01-15T03:03:47;1.40;99.90
5086;DHT22;4715;51.660;7.082;2024-01-15T03:06:10;1.40;99.90
5086;DHT22;4715;51.660;7.082;2024-01-15T03:08:32;1.40;99.90
5086;DHT22;4715;51.660;7.082;2024-01-15T03:10:55;1.40;99.90
5086;DHT22;4715;51.660;7.082;2024-01-15T03:13:19;1.40;99.90
5086;DHT22;4715;51.660;7.082;2024-01-15T03:15:41;1.50;99.90
5086;DHT22;4715;51.660;7.082;2024-01-15T03:18:04;1.50;99.90
5086;DHT22;4715;51.660;7.082;2024-01-15T03:20:27;1.50;99.90
5086;DHT22;4715;51.660;7.082;2024-01-15T03:22:48;1.50;99.90
5086;DHT22;4715;51.660;7.082;2024-01-15T03:25:11;1.50;99.90
5086;DHT22;4715;51.660;7.082;2024-01-15T03:27:33;1.50;99.90
5086;DHT22;4715;51.660;7.082;2024-01-15T03:29:59;1.50;99.90
5086;DHT22;4715;51.660;7.082;2024-01-15T03:32:23;1.50;99.90
5086;DHT22;4715;51.660;7.082;2024-01-15T03:34:47;1.50;99.90
5086;DHT22;4715;51.660;7.082;2024-01-15T03:37:11;1.50;99.90
5086;DHT22;4715;51.660;7.082;2024-01-15T03:39:34;1.50;99.90
5086;DHT22;4715;51.660;7.082;2024-01-15T03:41:57;1.50;99.90
5086;DHT22;4715;51.660;7.082;2024-01-15T03:44:19;1.50;99.90
5086;DHT22;4715;51.660;7.082;2024-01-15T03:46:42;1.50;99.90
5086;DHT22;4715;51.660;7.082;2024-01-15T03:49:06;1.50;99.90
5086;DHT22;4715;51.660;7.082;2024-01-15T03:51:30;1.50;99.90
5086;DHT22;4715;51.660;7.082;2024-01-15T03:53:52;1.50;99.90
5086;DHT22;4715;51.660;7.082;2024-01-15T03:56:14;1.50;99.90
5086;DHT22;4715;51.660;7.082;2024-01-15T03:58:36;1.50;99.90
5086;DHT22;4715;51.660;7.082;2024-01-15T04:01:01;1.50;99.90
5086;DHT22;4715;51.660;7.082;2024-01-15T04:03:31;1.50;99.90
5086;DHT22;4715;51.660;7.082;2024-01-15T04:05:54;1.50;99.90
5086;DHT22;4715;51.660;7.082;2024-01-15T04:08:17;1.50;99.90
5086;DHT22;4715;51.660;7.082;2024-01-15T04:10:38;1.40;99.90
5086;DHT22;4715;51.660;7.082;2024-01-15T04:13:00;1.50;99.90
5086;DHT22;4715;51.660;7.082;2024-01-15T04:15:26;1.50;99.90
5086;DHT22;4715;51.660;7.082;2024-01-15T04:17:49;1.50;99.90
5086;DHT22;4715;51.660;7.082;2024-01-15T04:20:12;1.40;99.90
5086;DHT22;4715;51.660;7.082;2024-01-15T04:22:35;1.40;99.90
5086;DHT22;4715;51.660;7.082;2024-01-15T04:25:00;1.40;99.90
5086;DHT22;4715;51.660;7.082;2024-01-15T04:27:24;1.50;99.90
5086;DHT22;4715;51.660;7.082;2024-01-15T04:29:48;1.50;99.90
5086;DHT22;4715;51.660;7.082;2024-01-15T04:32:10;1.50;99.90
5086;DHT22;4715;51.660;7.082;2024-01-15T04:34:34;1.50;99.90
5086;DHT22;4715;51.660;7.082;2024-01-15T04:36:57;1.50;99.90
5086;DHT22;4715;51.660;7.082;2024-01-15T04:39:22;1.50;99.90
5086;DHT22;4715;51.660;7.082;2024-01-15T04:41:44;1.50;99.90
5086;DHT22;4715;51.660;7.082;2024-01-15T04:44:09;1.50;99.90
5086;DHT22;4715;51.660;7.082;2024-01-15T04:46:32;1.50;99.90
5086;DHT22;4715;51.660;7.082;2024-01-15T04:48:54;1.50;99.90
5086;DHT22;4715;51.660;7.082;2024-01-15T04:51:16;1.50;99.90
5086;DHT22;4715;51.660;7.082;2024-01-15T04:53:44;1.50;99.90
5086;DHT22;4715;51.660;7.082;2024-01-15T04:56:08;1.50;99.90
5086;DHT22;4715;51.660;7.082;2024-01-15T04:58:30;1.50;99.90
5086;DHT22;4715;51.660;7.082;2024-01-15T05:00:54;1.50;99.90
5086;DHT22;4715;51.660;7.082;2024-01-15T05:03:19;1.50;99.90
5086;DHT22;4715;51.660;7.082;2024-01-15T05:05:44;1.50;99.90
5086;DHT22;4715;51.660;7.082;2024-01-15T05:08:06;1.50;99.90
5086;DHT22;4715;51.660;7.082;2024-01-15T05:10:30;1.50;99.90
5086;DHT22;4715;51.660;7.082;2024-01-15T05:12:51;1.50;99.90
5086;DHT22;4715;51.660;7.082;2024-01-15T05:15:14;1.50;99.90
5086;DHT22;4715;51.660;7.082;2024-01-15T05:17:38;1.50;99.90
5086;DHT22;4715;51.660;7.082;2024-01-15T05:20:07;1.50;99.90
5086;DHT22;4715;51.660;7.082;2024-01-15T05:22:30;1.50;99.90
5086;DHT22;4715;51.660;7.082;2024-01-15T05:24:53;1.50;99.90
5086;DHT22;4715;51.660;7.082;2024-01-15T05:27:19;1.50;99.90
5086;DHT22;4715;51.660;7.082;2024-01-15T05:29:44;1.50;99.90
5086;DHT22;4715;51.660;7.082;2024-01-15T05:32:07;1.50;99.90
5086;DHT22;4715;51.660;7.082;2024-01-15T05:34:28;1.50;99.90
5086;DHT22;4715;51.660;7.082;2024-01-15T05:36:51;1.50;99.90
5086;DHT22;4715;51.660;7.082;2024-01-15T05:39:14;1.50;99.90
5086;DHT22;4715;51.660;7.082;2024-01-15T05:41:40;1.50;99.90
5086;DHT22;4715;51.660;7.082;2024-01-15T05:44:08;1.50;99.90
5086;DHT22;4715;51.660;7.082;2024-01-15T05:46:29;1.50;99.90
5086;DHT22;4715;51.660;7.082;2024-01-15T05:48:50;1.60;99.90
5086;DHT22;4715;51.660;7.082;2024-01-15T05:51:13;1.60;99.90
5086;DHT22;4715;51.660;7.082;2024-01-15T05:53:36;1.60;99.90
5086;DHT22;4715;51.660;7.082;2024-01-15T05:56:04;1.60;99.90
5086;DHT22;4715;51.660;7.082;2024-01-15T05:58:29;1.60;99.90
5086;DHT22;4715;51.660;7.082;2024-01-15T06:00:52;1.50;99.90
5086;DHT22;4715;51.660;7.082;2024-01-15T06:03:14;1.60;99.90
5086;DHT22;4715;51.660;7.082;2024-01-15T06:05:36;1.60;99.90
5086;DHT22;4715;51.660;7.082;2024-01-15T06:08:01;1.60;99.90
5086;DHT22;4715;51.660;7.082;2024-01-15T06:10:23;1.60;99.90
5086;DHT22;4715;51.660;7.082;2024-01-15T06:12:45;1.60;99.90
5086;DHT22;4715;51.660;7.082;2024-01-15T06:15:08;1.60;99.90
5086;DHT22;4715;51.660;7.082;2024-01-15T06:17:31;1.60;99.90
5086;DHT22;4715;51.660;7.082;2024-01-15T06:19:53;1.60;99.90
5086;DHT22;4715;51.660;7.082;2024-01-15T06:22:17;1.60;99.90
5086;DHT22;4715;51.660;7.082;2024-01-15T06:24:39;1.60;99.90
5086;DHT22;4715;51.660;7.082;2024-01-15T06:27:04;1.60;99.90
5086;DHT22;4715;51.660;7.082;2024-01-15T06:29:27;1.60;99.90
5086;DHT22;4715;51.660;7.082;2024-01-15T06:31:54;1.60;99.90
5086;DHT22;4715;51.660;7.082;2024-01-15T06:34:52;1.70;99.90
5086;DHT22;4715;51.660;7.082;2024-01-15T06:37:14;1.60;99.90
5086;DHT22;4715;51.660;7.082;2024-01-15T06:39:36;1.60;99.90
5086;DHT22;4715;51.660;7.082;2024-01-15T06:41:58;1.60;99.90
5086;DHT22;4715;51.660;7.082;2024-01-15T06:44:22;1.60;99.90
5086;DHT22;4715;51.660;7.082;2024-01-15T06:46:45;1.70;99.90
5086;DHT22;4715;51.660;7.082;2024-01-15T06:49:07;1.60;99.90
5086;DHT22;4715;51.660;7.082;2024-01-15T06:51:30;1.70;99.90
5086;DHT22;4715;51.660;7.082;2024-01-15T06:53:53;1.70;99.90
5086;DHT22;4715;51.660;7.082;2024-01-15T06:56:17;1.70;99.90
5086;DHT22;4715;51.660;7.082;2024-01-15T06:58:40;1.70;99.90
5086;DHT22;4715;51.660;7.082;2024-01-15T07:01:02;1.70;99.90
5086;DHT22;4715;51.660;7.082;2024-01-15T07:03:28;1.70;99.90
5086;DHT22;4715;51.660;7.082;2024-01-15T07:05:51;1.70;99.90
5086;DHT22;4715;51.660;7.082;2024-01-15T07:08:14;1.70;99.90
5086;DHT22;4715;51.660;7.082;2024-01-15T07:10:36;1.60;99.90
5086;DHT22;4715;51.660;7.082;2024-01-15T07:12:58;1.70;99.90
5086;DHT22;4715;51.660;7.082;2024-01-15T07:15:20;1.70;99.90
5086;DHT22;4715;51.660;7.082;2024-01-15T07:17:42;1.70;99.90
5086;DHT22;4715;51.660;7.082;2024-01-15T07:20:05;1.70;99.90
5086;DHT22;4715;51.660;7.082;2024-01-15T07:22:30;1.70;99.90
5086;DHT22;4715;51.660;7.082;2024-01-15T07:24:53;1.70;99.90
5086;DHT22;4715;51.660;7.082;2024-01-15T07:27:16;1.70;99.90
5086;DHT22;4715;51.660;7.082;2024-01-15T07:29:38;1.70;99.90
5086;DHT22;4715;51.660;7.082;2024-01-15T07:32:00;1.70;99.90
5086;DHT22;4715;51.660;7.082;2024-01-15T07:34:22;1.70;99.90
5086;DHT22;4715;51.660;7.082;2024-01-15T07:36:44;1.70;99.90
5086;DHT22;4715;51.660;7.082;2024-01-15T07:39:06;1.70;99.90
5086;DHT22;4715;51.660;7.082;2024-01-15T07:41:29;1.70;99.90
5086;DHT22;4715;51.660;7.082;2024-01-15T07:43:51;1.70;99.90
5086;DHT22;4715;51.660;7.082;2024-01-15T07:46:14;1.70;99.90
5086;DHT22;4715;51.660;7.082;2024-01-15T07:48:36;1.70;99.90
5086;DHT22;4715;51.660;7.082;2024-01-15T07:50:58;1.60;99.90
5086;DHT22;4715;51.660;7.082;2024-01-15T07:53:30;1.60;99.90
5086;DHT22;4715;51.660;7.082;2024-01-15T07:55:52;1.60;99.90
5086;DHT22;4715;51.660;7.082;2024-01-15T07:58:15;1.60;99.90
5086;DHT22;4715;51.660;7.082;2024-01-15T08:00:38;1.60;99.90
5086;DHT22;4715;51.660;7.082;2024-01-15T08:03:03;1.60;99.90
5086;DHT22;4715;51.660;7.082;2024-01-15T08:05:29;1.60;99.90
5086;DHT22;4715;51.660;7.082;2024-01-15T08:07:50;1.60;99.90
5086;DHT22;4715;51.660;7.082;2024-01-15T08:10:12;1.60;99.90
5086;DHT22;4715;51.660;7.082;2024-01-15T08:12:34;1.50;99.90
5086;DHT22;4715;51.660;7.082;2024-01-15T08:14:57;1.50;99.90
5086;DHT22;4715;51.660;7.082;2024-01-15T08:17:19;1.50;99.90
5086;DHT22;4715;51.660;7.082;2024-01-15T08:19:41;1.50;99.90
5086;DHT22;4715;51.660;7.082;2024-01-15T08:22:03;1.50;99.90
5086;DHT22;4715;51.660;7.082;2024-01-15T08:24:25;1.40;99.90
5086;DHT22;4715;51.660;7.082;2024-01-15T08:26:51;1.40;99.90
5086;DHT22;4715;51.660;7.082;2024-01-15T08:29:15;1.40;99.90
5086;DHT22;4715;51.660;7.082;2024-01-15T08:31:41;1.40;99.90
5086;DHT22;4715;51.660;7.082;2024-01-15T08:34:03;1.40;99.90
5086;DHT22;4715;51.660;7.082;2024-01-15T08:36:25;1.30;99.90
5086;DHT22;4715;51.660;7.082;2024-01-15T08:38:47;1.40;99.90
5086;DHT22;4715;51.660;7.082;2024-01-15T08:41:09;1.40;99.90
5086;DHT22;4715;51.660;7.082;2024-01-15T08:43:31;1.40;99.90
5086;DHT22;4715;51.660;7.082;2024-01-15T08:45:53;1.40;99.90
5086;DHT22;4715;51.660;7.082;2024-01-15T08:48:17;1.40;99.90
5086;DHT22;4715;51.660;7.082;2024-01-15T08:50:42;1.40;99.90
5086;DHT22;4715;51.660;7.082;2024-01-15T08:53:06;1.40;99.90
5086;DHT22;4715;51.660;7.082;2024-01-15T08:55:28;1.40;99.90
5086;DHT22;4715;51.660;7.082;2024-01-15T08:57:50;1.40;99.90
5086;DHT22;4715;51.660;7.082;2024-01-15T09:00:13;1.40;99.90
5086;DHT22;4715;51.660;7.082;2024-01-15T09:02:35;1.40;99.90
5086;DHT22;4715;51.660;7.082;2024-01-15T09:04:59;1.40;99.90
5086;DHT22;4715;51.660;7.082;2024-01-15T09:07:21;1.40;99.90
5086;DHT22;4715;51.660;7.082;2024-01-15T09:09:45;1.40;99.90
5086;DHT22;4715;51.660;7.082;2024-01-15T09:12:09;1.40;99.90
5086;DHT22;4715;51.660;7.082;2024-01-15T09:14:31;1.40;99.90
5086;DHT22;4715;51.660;7.082;2024-01-15T09:16:54;1.40;99.90
5086;DHT22;4715;51.660;7.082;2024-01-15T09:19:16;1.40;99.90
5086;DHT22;4715;51.660;7.082;2024-01-15T09:21:40;1.40;99.90
5086;DHT22;4715;51.660;7.082;2024-01-15T09:24:03;1.40;99.90
5086;DHT22;4715;51.660;7.082;2024-01-15T09:26:25;1.40;99.90
5086;DHT22;4715;51.660;7.082;2024-01-15T09:28:47;1.40;99.90
5086;DHT22;4715;51.660;7.082;2024-01-15T09:31:09;1.30;99.90
5086;DHT22;4715;51.660;7.082;2024-01-15T09:33:31;1.30;99.90
5086;DHT22;4715;51.660;7.082;2024-01-15T09:35:54;1.30;99.90
5086;DHT22;4715;51.660;7.082;2024-01-15T09:38:17;1.30;99.90
5086;DHT22;4715;51.660;7.082;2024-01-15T09:40:43;1.30;99.90
5086;DHT22;4715;51.660;7.082;2024-01-15T09:43:07;1.30;99.90
5086;DHT22;4715;51.660;7.082;2024-01-15T09:45:29;1.30;99.90
5086;DHT22;4715;51.660;7.082;2024-01-15T09:47:51;1.30;99.90
5086;DHT22;4715;51.660;7.082;2024-01-15T09:50:14;1.30;99.90
5086;DHT22;4715;51.660;7.082;2024-01-15T09:52:36;1.30;99.90
5086;DHT22;4715;51.660;7.082;2024-01-15T09:55:02;1.30;99.90
5086;DHT22;4715;51.660;7.082;2024-01-15T09:57:25;1.30;99.90
5086;DHT22;4715;51.660;7.082;2024-01-15T09:59:52;1.30;99.90
5086;DHT22;4715;51.660;7.082;2024-01-15T10:02:16;1.40;99.90
5086;DHT22;4715;51.660;7.082;2024-01-15T10:04:39;1.30;99.90
5086;DHT22;4715;51.660;7.082;2024-01-15T10:07:05;1.40;99.90
5086;DHT22;4715;51.660;7.082;2024-01-15T10:09:32;1.40;99.90
5086;DHT22;4715;51.660;7.082;2024-01-15T10:11:55;1.40;99.90
5086;DHT22;4715;51.660;7.082;2024-01-15T10:14:18;1.40;99.90
5086;DHT22;4715;51.660;7.082;2024-01-15T10:16:40;1.40;99.90
5086;DHT22;4715;51.660;7.082;2024-01-15T10:19:02;1.50;99.90
5086;DHT22;4715;51.660;7.082;2024-01-15T10:21:24;1.40;99.90
5086;DHT22;4715;51.660;7.082;2024-01-15T10:23:47;1.50;99.90
5086;DHT22;4715;51.660;7.082;2024-01-15T10:26:08;1.50;99.90
5086;DHT22;4715;51.660;7.082;2024-01-15T10:28:33;1.50;99.90
5086;DHT22;4715;51.660;7.082;2024-01-15T10:30:56;1.50;99.90
5086;DHT22;4715;51.660;7.082;2024-01-15T10:33:22;1.50;99.90
5086;DHT22;4715;51.660;7.082;2024-01-15T10:35:45;1.60;99.90
5086;DHT22;4715;51.660;7.082;2024-01-15T10:38:07;1.50;99.90
5086;DHT22;4715;51.660;7.082;2024-01-15T10:40:29;1.50;99.90
5086;DHT22;4715;51.660;7.082;2024-01-15T10:42:51;1.60;99.90
5086;DHT22;4715;51.660;7.082;2024-01-15T10:45:15;1.60;99.90
5086;DHT22;4715;51.660;7.082;2024-01-15T10:47:38;1.60;99.90
5086;DHT22;4715;51.660;7.082;2024-01-15T10:50:03;1.60;99.90
5086;DHT22;4715;51.660;7.082;2024-01-15T10:52:27;1.60;99.90
5086;DHT22;4715;51.660;7.082;2024-01-15T10:54:50;1.70;99.90
5086;DHT22;4715;51.660;7.082;2024-01-15T10:57:13;1.70;99.90
5086;DHT22;4715;51.660;7.082;2024-01-15T10:59:36;1.70;99.90
5086;DHT22;4715;51.660;7.082;2024-01-15T11:02:01;1.70;99.90
5086;DHT22;4715;51.660;7.082;2024-01-15T11:04:23;1.70;99.90
5086;DHT22;4715;51.660;7.082;2024-01-15T11:06:52;1.80;99.90
5086;DHT22;4715;51.660;7.082;2024-01-15T11:09:14;1.80;99.90
5086;DHT22;4715;51.660;7.082;2024-01-15T11:11:41;1.80;99.90
5086;DHT22;4715;51.660;7.082;2024-01-15T11:14:03;1.80;99.90
5086;DHT22;4715;51.660;7.082;2024-01-15T11:16:53;1.80;99.90
5086;DHT22;4715;51.660;7.082;2024-01-15T11:19:19;1.80;99.90
5086;DHT22;4715;51.660;7.082;2024-01-15T11:21:42;1.80;99.90
5086;DHT22;4715;51.660;7.082;2024-01-15T11:24:05;1.80;99.90
5086;DHT22;4715;51.660;7.082;2024-01-15T11:26:35;1.80;99.90
5086;DHT22;4715;51.660;7.082;2024-01-15T11:28:58;1.80;99.90
5086;DHT22;4715;51.660;7.082;2024-01-15T11:31:25;1.90;99.90
5086;DHT22;4715;51.660;7.082;2024-01-15T11:33:48;2.00;99.90
5086;DHT22;4715;51.660;7.082;2024-01-15T11:36:12;2.00;99.90
5086;DHT22;4715;51.660;7.082;2024-01-15T11:38:35;2.00;99.90
5086;DHT22;4715;51.660;7.082;2024-01-15T11:40:58;2.10;99.90
5086;DHT22;4715;51.660;7.082;2024-01-15T11:43:23;2.10;99.90
5086;DHT22;4715;51.660;7.082;2024-01-15T11:45:46;2.20;99.90
5086;DHT22;4715;51.660;7.082;2024-01-15T11:48:11;2.20;99.90
5086;DHT22;4715;51.660;7.082;2024-01-15T11:50:35;2.20;99.90
5086;DHT22;4715;51.660;7.082;2024-01-15T11:53:01;2.20;99.90
5086;DHT22;4715;51.660;7.082;2024-01-15T11:55:27;2.30;99.90
5086;DHT22;4715;51.660;7.082;2024-01-15T11:57:53;2.20;99.90
5086;DHT22;4715;51.660;7.082;2024-01-15T12:00:16;2.20;99.90
5086;DHT22;4715;51.660;7.082;2024-01-15T12:02:38;2.10;99.90
5086;DHT22;4715;51.660;7.082;2024-01-15T12:05:00;2.10;99.90
5086;DHT22;4715;51.660;7.082;2024-01-15T12:07:23;2.10;99.90
5086;DHT22;4715;51.660;7.082;2024-01-15T12:09:46;2.10;99.90
5086;DHT22;4715;51.660;7.082;2024-01-15T12:12:14;2.10;99.90
5086;DHT22;4715;51.660;7.082;2024-01-15T12:14:40;2.10;99.90
5086;DHT22;4715;51.660;7.082;2024-01-15T12:17:02;2.20;99.90
5086;DHT22;4715;51.660;7.082;2024-01-15T12:19:24;2.20;99.90
5086;DHT22;4715;51.660;7.082;2024-01-15T12:21:46;2.30;99.90
5086;DHT22;4715;51.660;7.082;2024-01-15T12:24:10;2.30;99.90
5086;DHT22;4715;51.660;7.082;2024-01-15T12:26:33;2.30;99.90
5086;DHT22;4715;51.660;7.082;2024-01-15T12:28:55;2.30;99.90
5086;DHT22;4715;51.660;7.082;2024-01-15T12:31:19;2.20;99.90
5086;DHT22;4715;51.660;7.082;2024-01-15T12:33:46;2.30;99.90
5086;DHT22;4715;51.660;7.082;2024-01-15T12:36:08;2.30;99.90
5086;DHT22;4715;51.660;7.082;2024-01-15T12:38:30;2.30;99.90
5086;DHT22;4715;51.660;7.082;2024-01-15T12:40:52;2.30;99.90
5086;DHT22;4715;51.660;7.082;2024-01-15T12:43:17;2.30;99.90
5086;DHT22;4715;51.660;7.082;2024-01-15T12:45:39;2.30;99.90
5086;DHT22;4715;51.660;7.082;2024-01-15T12:48:02;2.30;99.90
5086;DHT22;4715;51.660;7.082;2024-01-15T12:50:25;2.40;99.90
5086;DHT22;4715;51.660;7.082;2024-01-15T12:52:47;2.40;99.90
5086;DHT22;4715;51.660;7.082;2024-01-15T12:55:09;2.40;99.90
5086;DHT22;4715;51.660;7.082;2024-01-15T12:57:31;2.40;99.90
5086;DHT22;4715;51.660;7.082;2024-01-15T12:59:56;2.40;99.90
5086;DHT22;4715;51.660;7.082;2024-01-15T13:02:17;2.40;99.90
5086;DHT22;4715;51.660;7.082;2024-01-15T13:04:39;2.40;99.90
5086;DHT22;4715;51.660;7.082;2024-01-15T13:07:02;2.40;99.90
5086;DHT22;4715;51.660;7.082;2024-01-15T13:09:22;2.40;99.90
5086;DHT22;4715;51.660;7.082;2024-01-15T13:11:45;2.40;99.90
5086;DHT22;4715;51.660;7.082;2024-01-15T13:14:09;2.40;99.90
5086;DHT22;4715;51.660;7.082;2024-01-15T13:16:33;2.40;99.90
5086;DHT22;4715;51.660;7.082;2024-01-15T13:18:57;2.40;99.90
5086;DHT22;4715;51.660;7.082;2024-01-15T13:21:19;2.40;99.90
5086;DHT22;4715;51.660;7.082;2024-01-15T13:23:41;2.40;99.90
5086;DHT22;4715;51.660;7.082;2024-01-15T13:26:04;2.40;99.90
5086;DHT22;4715;51.660;7.082;2024-01-15T13:28:26;2.50;99.90
5086;DHT22;4715;51.660;7.082;2024-01-15T13:30:48;2.50;99.90
5086;DHT22;4715;51.660;7.082;2024-01-15T13:33:11;2.50;99.90
5086;DHT22;4715;51.660;7.082;2024-01-15T13:35:33;2.50;99.90
5086;DHT22;4715;51.660;7.082;2024-01-15T13:38:00;2.50;99.90
5086;DHT22;4715;51.660;7.082;2024-01-15T13:40:22;2.50;99.90
5086;DHT22;4715;51.660;7.082;2024-01-15T13:42:44;2.50;99.90
5086;DHT22;4715;51.660;7.082;2024-01-15T13:45:06;2.50;99.90
5086;DHT22;4715;51.660;7.082;2024-01-15T13:47:29;2.50;99.90
5086;DHT22;4715;51.660;7.082;2024-01-15T13:49:52;2.60;99.90
5086;DHT22;4715;51.660;7.082;2024-01-15T13:52:14;2.60;99.90
5086;DHT22;4715;51.660;7.082;2024-01-15T13:54:36;2.50;99.90
5086;DHT22;4715;51.660;7.082;2024-01-15T13:57:00;2.40;99.90
5086;DHT22;4715;51.660;7.082;2024-01-15T13:59:28;2.30;99.90
5086;DHT22;4715;51.660;7.082;2024-01-15T14:01:49;2.20;99.90
5086;DHT22;4715;51.660;7.082;2024-01-15T14:04:11;2.20;99.90
5086;DHT22;4715;51.660;7.082;2024-01-15T14:06:38;2.10;99.90
5086;DHT22;4715;51.660;7.082;2024-01-15T14:09:00;2.20;99.90
5086;DHT22;4715;51.660;7.082;2024-01-15T14:11:24;2.10;99.90
5086;DHT22;4715;51.660;7.082;2024-01-15T14:13:46;2.10;99.90
5086;DHT22;4715;51.660;7.082;2024-01-15T14:16:09;2.10;99.90
5086;DHT22;4715;51.660;7.082;2024-01-15T14:18:33;2.20;99.90
5086;DHT22;4715;51.660;7.082;2024-01-15T14:20:55;2.20;99.90
5086;DHT22;4715;51.660;7.082;2024-01-15T14:23:19;2.20;99.90
5086;DHT22;4715;51.660;7.082;2024-01-15T14:25:40;2.30;99.90
5086;DHT22;4715;51.660;7.082;2024-01-15T14:28:04;2.30;99.90
5086;DHT22;4715;51.660;7.082;2024-01-15T14:30:28;2.30;99.90
5086;DHT22;4715;51.660;7.082;2024-01-15T14:32:50;2.30;99.90
5086;DHT22;4715;51.660;7.082;2024-01-15T14:35:12;2.30;99.90
5086;DHT22;4715;51.660;7.082;2024-01-15T14:37:34;2.30;99.90
5086;DHT22;4715;51.660;7.082;2024-01-15T14:39:59;2.30;99.90
5086;DHT22;4715;51.660;7.082;2024-01-15T14:42:21;2.20;99.90
5086;DHT22;4715;51.660;7.082;2024-01-15T14:44:46;2.20;99.90
5086;DHT22;4715;51.660;7.082;2024-01-15T14:47:09;2.20;99.90
5086;DHT22;4715;51.660;7.082;2024-01-15T14:49:34;2.10;99.90
5086;DHT22;4715;51.660;7.082;2024-01-15T14:51:57;2.10;99.90
5086;DHT22;4715;51.660;7.082;2024-01-15T14:54:21;2.10;99.90
5086;DHT22;4715;51.660;7.082;2024-01-15T14:56:44;2.10;99.90
5086;DHT22;4715;51.660;7.082;2024-01-15T14:59:07;2.10;99.90
5086;DHT22;4715;51.660;7.082;2024-01-15T15:01:29;2.00;99.90
5086;DHT22;4715;51.660;7.082;2024-01-15T15:03:51;2.00;99.90
5086;DHT22;4715;51.660;7.082;2024-01-15T15:06:16;2.00;99.90
5086;DHT22;4715;51.660;7.082;2024-01-15T15:08:43;2.00;99.90
5086;DHT22;4715;51.660;7.082;2024-01-15T15:11:07;2.00;99.90
5086;DHT22;4715;51.660;7.082;2024-01-15T15:13:31;2.00;99.90
5086;DHT22;4715;51.660;7.082;2024-01-15T15:15:53;2.00;99.90
5086;DHT22;4715;51.660;7.082;2024-01-15T15:18:18;2.00;99.90
5086;DHT22;4715;51.660;7.082;2024-01-15T15:20:44;2.00;99.90
5086;DHT22;4715;51.660;7.082;2024-01-15T15:23:07;1.90;99.90
5086;DHT22;4715;51.660;7.082;2024-01-15T15:25:30;1.90;99.90
5086;DHT22;4715;51.660;7.082;2024-01-15T15:27:53;1.90;99.90
5086;DHT22;4715;51.660;7.082;2024-01-15T15:30:18;1.80;99.90
5086;DHT22;4715;51.660;7.082;2024-01-15T15:32:42;1.80;99.90
5086;DHT22;4715;51.660;7.082;2024-01-15T15:35:05;1.80;99.90
5086;DHT22;4715;51.660;7.082;2024-01-15T15:37:30;1.80;99.90
5086;DHT22;4715;51.660;7.082;2024-01-15T15:39:52;1.80;99.90
5086;DHT22;4715;51.660;7.082;2024-01-15T15:42:14;1.80;99.90
5086;DHT22;4715;51.660;7.082;2024-01-15T15:44:36;1.70;99.90
5086;DHT22;4715;51.660;7.082;2024-01-15T15:46:59;1.70;99.90
5086;DHT22;4715;51.660;7.082;2024-01-15T15:49:21;1.70;99.90
5086;DHT22;4715;51.660;7.082;2024-01-15T15:51:47;1.70;99.90